Time;durP1;ratioP1;P1;durP2;ratioP2;P2;SDS_P1;SDS_P2;PMS_P1;PMS_P2;Temp;Humidity;BMP_temperature;BMP_pressure;BME280_temperature;BME280_humidity;BME280_pressure;Samples;Min_cycle;Max_cycle;Signal;HPM_P1;HPM_P2
2022/06/12 00:00:13;;;;;;;;;;;14.50;99.90;;;;;;5093566;28;38572;-56
2022/06/12 00:02:40;;;;;;;;;;;14.60;99.90;;;;;;5091444;27;37902;-56
2022/06/12 00:05:07;;;;;;;;;;;14.60;99.90;;;;;;5092485;27;35911;-56
2022/06/12 00:07:34;;;;;;;;;;;14.60;99.90;;;;;;5092599;27;36170;-57
2022/06/12 00:10:03;;;;;;;;;;;14.60;99.90;;;;;;5092842;27;36593;-56
2022/06/12 00:12:30;;;;;;;;;;;14.60;99.90;;;;;;5092067;28;39042;-56
2022/06/12 00:14:57;;;;;;;;;;;14.60;99.90;;;;;;5092230;28;39578;-56
2022/06/12 00:17:24;;;;;;;;;;;14.60;99.90;;;;;;5089849;27;36605;-57
2022/06/12 00:19:51;;;;;;;;;;;14.60;99.90;;;;;;5091913;27;36731;-57
2022/06/12 00:22:19;;;;;;;;;;;14.60;99.90;;;;;;5090313;28;38899;-57
2022/06/12 00:24:46;;;;;;;;;;;14.70;99.90;;;;;;5091388;27;37852;-57
2022/06/12 00:27:15;;;;;;;;;;;14.70;99.90;;;;;;5092664;28;36480;-56
2022/06/12 00:29:44;;;;;;;;;;;14.70;99.90;;;;;;5092195;27;37008;-56
2022/06/12 00:32:13;;;;;;;;;;;14.70;99.90;;;;;;5090292;27;40744;-56
2022/06/12 00:34:42;;;;;;;;;;;14.70;99.90;;;;;;5090640;27;37056;-56
2022/06/12 00:37:10;;;;;;;;;;;14.70;99.90;;;;;;5090514;27;37890;-56
2022/06/12 00:39:37;;;;;;;;;;;14.70;99.90;;;;;;5090789;28;38451;-56
2022/06/12 00:42:05;;;;;;;;;;;14.70;99.90;;;;;;5091339;28;37568;-56
2022/06/12 00:44:37;;;;;;;;;;;14.80;99.90;;;;;;5089349;27;38935;-56
2022/06/12 00:47:05;;;;;;;;;;;14.70;99.90;;;;;;5088517;27;36259;-56
2022/06/12 00:49:35;;;;;;;;;;;14.80;99.90;;;;;;5091755;28;43679;-56
2022/06/12 00:52:05;;;;;;;;;;;14.70;99.90;;;;;;5091703;28;36550;-56
2022/06/12 00:54:33;;;;;;;;;;;14.70;99.90;;;;;;5090875;27;37894;-56
2022/06/12 00:57:01;;;;;;;;;;;14.80;99.90;;;;;;5093262;28;36079;-56
2022/06/12 00:59:33;;;;;;;;;;;14.80;99.90;;;;;;5092143;28;38309;-56
2022/06/12 01:02:02;;;;;;;;;;;14.80;99.90;;;;;;5092942;27;37940;-56
2022/06/12 01:07:16;;;;;;;;;;;14.70;99.90;;;;;;5092107;28;37302;-57
2022/06/12 01:09:44;;;;;;;;;;;14.70;99.90;;;;;;5091949;27;38421;-56
2022/06/12 01:12:14;;;;;;;;;;;14.70;99.90;;;;;;5092504;27;36815;-56
2022/06/12 01:14:42;;;;;;;;;;;14.70;99.90;;;;;;5091603;27;37191;-57
2022/06/12 01:17:11;;;;;;;;;;;14.60;99.90;;;;;;5090363;27;37408;-56
2022/06/12 01:19:40;;;;;;;;;;;14.60;99.90;;;;;;5089958;27;39375;-56
2022/06/12 01:22:26;;;;;;;;;;;14.60;99.90;;;;;;5089130;27;41007;-57
2022/06/12 01:25:05;;;;;;;;;;;14.50;99.90;;;;;;5090110;27;37271;-56
2022/06/12 01:27:51;;;;;;;;;;;14.60;99.90;;;;;;5090650;27;35147;-56
2022/06/12 01:30:20;;;;;;;;;;;14.60;99.90;;;;;;5090746;27;36826;-56
2022/06/12 01:32:52;;;;;;;;;;;14.60;99.90;;;;;;5089770;27;38834;-56
2022/06/12 01:35:22;;;;;;;;;;;14.60;99.90;;;;;;5089516;27;36137;-56
2022/06/12 01:37:51;;;;;;;;;;;14.50;99.90;;;;;;5089708;27;35654;-56
2022/06/12 01:40:25;;;;;;;;;;;14.50;99.90;;;;;;5088628;27;36289;-56
2022/06/12 01:42:53;;;;;;;;;;;14.50;99.90;;;;;;5090381;27;37730;-56
2022/06/12 01:45:28;;;;;;;;;;;14.50;99.90;;;;;;5089641;27;36984;-56
2022/06/12 01:48:03;;;;;;;;;;;14.50;99.90;;;;;;5090976;28;37555;-56
2022/06/12 01:50:35;;;;;;;;;;;14.50;99.90;;;;;;5090121;27;39881;-57
2022/06/12 01:53:05;;;;;;;;;;;14.50;99.90;;;;;;5090830;27;36713;-57
2022/06/12 01:55:36;;;;;;;;;;;14.50;99.90;;;;;;5090660;27;37967;-57
2022/06/12 01:58:06;;;;;;;;;;;14.50;99.90;;;;;;5091415;27;36061;-56
2022/06/12 02:00:35;;;;;;;;;;;14.60;99.90;;;;;;5091063;27;38208;-56
2022/06/12 02:03:05;;;;;;;;;;;14.60;99.90;;;;;;5092185;27;36699;-56
2022/06/12 02:05:37;;;;;;;;;;;14.60;99.90;;;;;;5090847;27;36851;-57
2022/06/12 02:08:07;;;;;;;;;;;14.60;99.90;;;;;;5092708;27;36720;-56
2022/06/12 02:10:36;;;;;;;;;;;14.60;99.90;;;;;;5091580;27;37481;-56
2022/06/12 02:13:13;;;;;;;;;;;14.60;99.90;;;;;;5092353;27;38493;-56
2022/06/12 02:15:45;;;;;;;;;;;14.70;99.90;;;;;;5091461;27;36893;-56
2022/06/12 02:18:15;;;;;;;;;;;14.70;99.90;;;;;;5092899;27;36665;-56
2022/06/12 02:20:45;;;;;;;;;;;14.70;99.90;;;;;;5090598;27;39789;-56
2022/06/12 02:23:16;;;;;;;;;;;14.60;99.90;;;;;;5092061;27;37830;-56
2022/06/12 02:25:45;;;;;;;;;;;14.60;99.90;;;;;;5091659;27;36632;-56
2022/06/12 02:28:14;;;;;;;;;;;14.70;99.90;;;;;;5092076;27;36855;-57
2022/06/12 02:30:44;;;;;;;;;;;14.60;99.90;;;;;;5091624;27;38777;-56
2022/06/12 02:33:14;;;;;;;;;;;14.60;99.90;;;;;;5092206;28;37332;-56
2022/06/12 02:35:46;;;;;;;;;;;14.70;99.90;;;;;;5091739;27;38061;-56
2022/06/12 02:38:15;;;;;;;;;;;14.70;99.90;;;;;;5090939;27;38688;-56
2022/06/12 02:40:44;;;;;;;;;;;14.60;99.90;;;;;;5090330;27;38485;-57
2022/06/12 02:43:13;;;;;;;;;;;14.60;99.90;;;;;;5092349;27;36846;-56
2022/06/12 02:45:42;;;;;;;;;;;14.60;99.90;;;;;;5089573;27;37310;-56
2022/06/12 02:48:10;;;;;;;;;;;14.60;99.90;;;;;;5091055;27;37225;-56
2022/06/12 02:50:42;;;;;;;;;;;14.60;99.90;;;;;;5091584;27;35639;-56
2022/06/12 02:53:14;;;;;;;;;;;14.60;99.90;;;;;;5091658;27;38498;-56
2022/06/12 02:55:44;;;;;;;;;;;14.60;99.90;;;;;;5090123;27;37841;-56
2022/06/12 02:58:16;;;;;;;;;;;14.60;99.90;;;;;;5091390;27;35236;-56
2022/06/12 03:00:45;;;;;;;;;;;14.60;99.90;;;;;;5089743;27;37462;-57
2022/06/12 03:03:15;;;;;;;;;;;14.60;99.90;;;;;;5092245;27;38811;-56
2022/06/12 03:05:48;;;;;;;;;;;14.60;99.90;;;;;;5090255;27;37606;-57
2022/06/12 03:08:16;;;;;;;;;;;14.60;99.90;;;;;;5090460;27;35757;-56
2022/06/12 03:10:46;;;;;;;;;;;14.50;99.90;;;;;;5092671;27;39324;-56
2022/06/12 03:13:13;;;;;;;;;;;14.50;99.90;;;;;;5093751;27;37760;-56
2022/06/12 03:15:41;;;;;;;;;;;14.50;99.90;;;;;;5094842;28;37026;-56
2022/06/12 03:18:10;;;;;;;;;;;14.40;99.90;;;;;;5093838;27;35094;-56
2022/06/12 03:20:41;;;;;;;;;;;14.40;99.90;;;;;;5094636;27;36574;-56
2022/06/12 03:23:13;;;;;;;;;;;14.40;99.90;;;;;;5094210;27;37153;-57
2022/06/12 03:25:44;;;;;;;;;;;14.40;99.90;;;;;;5094338;27;37285;-57
2022/06/12 03:28:15;;;;;;;;;;;14.40;99.90;;;;;;5094048;27;36748;-56
2022/06/12 03:30:45;;;;;;;;;;;14.40;99.90;;;;;;5094504;27;38449;-56
2022/06/12 03:33:14;;;;;;;;;;;14.50;99.90;;;;;;5094556;27;38552;-56
2022/06/12 03:35:45;;;;;;;;;;;14.50;99.90;;;;;;5094110;27;37040;-56
2022/06/12 03:38:16;;;;;;;;;;;14.50;99.90;;;;;;5094382;27;36024;-56
2022/06/12 03:40:49;;;;;;;;;;;14.50;99.90;;;;;;5094125;28;37511;-57
2022/06/12 03:43:18;;;;;;;;;;;14.50;99.90;;;;;;5093249;27;38506;-56
2022/06/12 03:45:48;;;;;;;;;;;14.50;99.90;;;;;;5093957;27;36801;-57
2022/06/12 03:48:23;;;;;;;;;;;14.50;99.90;;;;;;5094241;27;35281;-56
2022/06/12 03:50:55;;;;;;;;;;;14.50;99.90;;;;;;5094234;27;37824;-56
2022/06/12 03:53:26;;;;;;;;;;;14.50;99.90;;;;;;5093813;27;38791;-56
2022/06/12 03:58:47;;;;;;;;;;;14.60;99.90;;;;;;5093542;28;36298;-56
2022/06/12 04:01:15;;;;;;;;;;;14.70;99.90;;;;;;5093137;27;37671;-56
2022/06/12 04:03:45;;;;;;;;;;;14.80;99.90;;;;;;5093925;28;36664;-56
2022/06/12 04:06:14;;;;;;;;;;;14.80;99.90;;;;;;5093563;27;38121;-56
2022/06/12 04:08:45;;;;;;;;;;;14.90;99.90;;;;;;5093758;27;36120;-56
2022/06/12 04:11:12;;;;;;;;;;;14.90;99.90;;;;;;5092633;27;38210;-56
2022/06/12 04:13:41;;;;;;;;;;;15.00;99.90;;;;;;5091907;27;37739;-56
2022/06/12 04:16:20;;;;;;;;;;;15.10;99.90;;;;;;5091758;27;37849;-56
2022/06/12 04:18:47;;;;;;;;;;;15.20;99.90;;;;;;5093206;27;35190;-56
2022/06/12 04:21:21;;;;;;;;;;;15.30;99.90;;;;;;5091862;27;39477;-56
2022/06/12 04:23:51;;;;;;;;;;;15.40;99.90;;;;;;5092544;27;36606;-56
2022/06/12 04:26:22;;;;;;;;;;;15.60;99.90;;;;;;5092255;27;38460;-56
2022/06/12 04:28:55;;;;;;;;;;;15.60;99.90;;;;;;5093644;27;36542;-56
2022/06/12 04:31:22;;;;;;;;;;;15.70;99.90;;;;;;5092670;27;37612;-56
2022/06/12 04:34:04;;;;;;;;;;;15.70;99.90;;;;;;5093502;27;38628;-56
2022/06/12 04:36:31;;;;;;;;;;;15.60;99.90;;;;;;5091458;28;38082;-56
2022/06/12 04:39:00;;;;;;;;;;;15.60;99.90;;;;;;5093736;27;37282;-57
2022/06/12 04:41:28;;;;;;;;;;;15.60;99.90;;;;;;5092594;27;39151;-56
2022/06/12 04:43:55;;;;;;;;;;;15.50;99.90;;;;;;5093169;27;38081;-56
2022/06/12 04:46:23;;;;;;;;;;;15.50;99.90;;;;;;5092690;27;36028;-56
2022/06/12 04:48:51;;;;;;;;;;;15.40;99.90;;;;;;5092952;27;36989;-56
2022/06/12 04:51:19;;;;;;;;;;;15.40;99.90;;;;;;5093114;27;38308;-56
2022/06/12 04:53:46;;;;;;;;;;;15.30;99.90;;;;;;5091741;27;38063;-56
2022/06/12 04:56:16;;;;;;;;;;;15.40;99.90;;;;;;5093419;27;35984;-56
2022/06/12 04:58:43;;;;;;;;;;;15.50;99.90;;;;;;5092303;27;36949;-56
2022/06/12 05:01:11;;;;;;;;;;;15.50;99.90;;;;;;5093331;27;38123;-56
2022/06/12 05:03:38;;;;;;;;;;;15.50;99.90;;;;;;5092766;27;37486;-56
2022/06/12 05:06:06;;;;;;;;;;;15.50;99.90;;;;;;5092695;27;37236;-56
2022/06/12 05:08:34;;;;;;;;;;;15.70;99.90;;;;;;5092860;27;35229;-56
2022/06/12 05:11:01;;;;;;;;;;;15.80;99.90;;;;;;5092833;27;37162;-56
2022/06/12 05:13:29;;;;;;;;;;;16.00;99.90;;;;;;5092389;27;37742;-56
2022/06/12 05:15:57;;;;;;;;;;;16.20;99.90;;;;;;5092244;27;37499;-56
2022/06/12 05:18:24;;;;;;;;;;;16.30;99.90;;;;;;5092722;27;35069;-56
2022/06/12 05:20:51;;;;;;;;;;;16.50;99.90;;;;;;5092142;27;37514;-57
2022/06/12 05:23:18;;;;;;;;;;;16.60;99.90;;;;;;5092452;27;36635;-57
2022/06/12 05:25:45;;;;;;;;;;;16.80;99.90;;;;;;5092258;27;37917;-56
2022/06/12 05:28:13;;;;;;;;;;;16.90;99.90;;;;;;5091919;27;37538;-57
2022/06/12 05:30:42;;;;;;;;;;;17.10;99.90;;;;;;5092398;28;36576;-57
2022/06/12 05:33:09;;;;;;;;;;;17.20;99.90;;;;;;5091878;27;38649;-56
2022/06/12 05:35:38;;;;;;;;;;;17.30;99.90;;;;;;5091810;27;41194;-56
2022/06/12 05:38:05;;;;;;;;;;;17.40;99.90;;;;;;5092300;27;37038;-56
2022/06/12 05:40:33;;;;;;;;;;;17.60;99.90;;;;;;5092554;27;37637;-56
2022/06/12 05:43:01;;;;;;;;;;;17.70;99.90;;;;;;5091663;27;38360;-55
2022/06/12 05:45:29;;;;;;;;;;;17.80;99.90;;;;;;5092156;27;37379;-56
2022/06/12 05:47:59;;;;;;;;;;;18.00;99.90;;;;;;5092481;28;36808;-57
2022/06/12 05:50:27;;;;;;;;;;;18.10;99.90;;;;;;5092403;27;37717;-57
2022/06/12 05:52:54;;;;;;;;;;;18.10;99.90;;;;;;5092669;27;38194;-56
2022/06/12 05:55:21;;;;;;;;;;;18.20;99.90;;;;;;5091337;27;37191;-57
2022/06/12 05:57:49;;;;;;;;;;;18.30;99.90;;;;;;5091968;27;35854;-57
2022/06/12 06:00:18;;;;;;;;;;;18.50;99.90;;;;;;5091896;27;38460;-57
2022/06/12 06:02:45;;;;;;;;;;;18.60;99.90;;;;;;5091461;27;36799;-56
2022/06/12 06:05:14;;;;;;;;;;;18.70;99.90;;;;;;5092256;27;37333;-56
2022/06/12 06:07:41;;;;;;;;;;;18.90;99.90;;;;;;5092375;27;34721;-57
2022/06/12 06:10:10;;;;;;;;;;;19.00;99.90;;;;;;5091251;27;38037;-56
2022/06/12 06:12:37;;;;;;;;;;;19.10;99.90;;;;;;5090814;27;39224;-56
2022/06/12 06:15:04;;;;;;;;;;;19.20;99.90;;;;;;5091268;28;37700;-57
2022/06/12 06:17:31;;;;;;;;;;;19.20;99.90;;;;;;5091183;27;38648;-57
2022/06/12 06:19:58;;;;;;;;;;;19.30;99.90;;;;;;5091807;27;37546;-57
2022/06/12 06:22:26;;;;;;;;;;;19.30;99.90;;;;;;5091913;27;37430;-56
2022/06/12 06:24:53;;;;;;;;;;;19.40;99.90;;;;;;5091737;27;38882;-57
2022/06/12 06:27:21;;;;;;;;;;;19.40;99.90;;;;;;5090457;27;37044;-57
2022/06/12 06:29:48;;;;;;;;;;;19.50;99.90;;;;;;5091376;27;38844;-57
2022/06/12 06:32:15;;;;;;;;;;;19.50;99.90;;;;;;5091406;27;39306;-57
2022/06/12 06:34:42;;;;;;;;;;;19.60;99.90;;;;;;5091578;27;35983;-57
2022/06/12 06:37:10;;;;;;;;;;;19.60;99.90;;;;;;5091288;27;36268;-56
2022/06/12 06:39:40;;;;;;;;;;;19.70;99.90;;;;;;5091465;27;39181;-57
2022/06/12 06:42:07;;;;;;;;;;;19.80;99.90;;;;;;5091049;27;38184;-57
2022/06/12 06:47:20;;;;;;;;;;;19.90;99.90;;;;;;5095765;28;40029;-57
2022/06/12 06:49:47;;;;;;;;;;;20.00;99.90;;;;;;5094571;27;38437;-57
2022/06/12 06:52:14;;;;;;;;;;;20.10;99.90;;;;;;5095208;27;38555;-56
2022/06/12 06:54:42;;;;;;;;;;;20.20;99.90;;;;;;5094858;27;38965;-57
2022/06/12 06:57:10;;;;;;;;;;;20.20;99.60;;;;;;5095591;27;36922;-57
2022/06/12 06:59:37;;;;;;;;;;;20.10;99.90;;;;;;5095490;28;37451;-57
2022/06/12 07:02:05;;;;;;;;;;;20.10;99.90;;;;;;5093663;27;38201;-57
2022/06/12 07:04:32;;;;;;;;;;;20.20;99.90;;;;;;5094406;27;37742;-56
2022/06/12 07:06:59;;;;;;;;;;;20.30;99.90;;;;;;5091571;27;37263;-57
2022/06/12 07:09:26;;;;;;;;;;;20.40;99.50;;;;;;5088581;27;38248;-57
2022/06/12 07:11:55;;;;;;;;;;;20.40;98.90;;;;;;5088134;27;38717;-57
2022/06/12 07:14:22;;;;;;;;;;;20.60;98.70;;;;;;5088139;27;37274;-57
2022/06/12 07:16:49;;;;;;;;;;;20.60;99.00;;;;;;5086416;27;36101;-57
2022/06/12 07:19:16;;;;;;;;;;;20.70;99.10;;;;;;5087846;27;37719;-57
2022/06/12 07:21:43;;;;;;;;;;;20.70;98.20;;;;;;5088128;28;37055;-57
2022/06/12 07:24:11;;;;;;;;;;;20.80;97.90;;;;;;5088591;28;37159;-57
2022/06/12 07:26:39;;;;;;;;;;;20.80;97.10;;;;;;5086380;27;37870;-58
2022/06/12 07:29:09;;;;;;;;;;;20.80;97.40;;;;;;5089385;27;37987;-57
2022/06/12 07:31:36;;;;;;;;;;;20.90;97.90;;;;;;5088523;27;38443;-57
2022/06/12 07:34:03;;;;;;;;;;;21.00;97.00;;;;;;5089072;27;35933;-57
2022/06/12 07:36:30;;;;;;;;;;;21.00;96.90;;;;;;5089634;27;37866;-57
2022/06/12 07:38:58;;;;;;;;;;;21.00;97.10;;;;;;5089050;27;37944;-57
2022/06/12 07:41:25;;;;;;;;;;;21.00;96.00;;;;;;5088920;27;37883;-57
2022/06/12 07:43:52;;;;;;;;;;;20.80;96.30;;;;;;5089421;27;36879;-57
2022/06/12 07:46:21;;;;;;;;;;;20.80;96.80;;;;;;5089336;28;36277;-57
2022/06/12 07:48:48;;;;;;;;;;;20.80;96.90;;;;;;5088717;27;37438;-57
2022/06/12 07:51:17;;;;;;;;;;;20.80;96.10;;;;;;5087901;27;41232;-57
2022/06/12 07:53:45;;;;;;;;;;;20.90;96.70;;;;;;5082978;27;37395;-57
2022/06/12 07:56:12;;;;;;;;;;;21.00;97.10;;;;;;5088137;27;35902;-57
2022/06/12 07:58:40;;;;;;;;;;;21.20;96.80;;;;;;5088428;27;38053;-57
2022/06/12 08:01:09;;;;;;;;;;;21.30;96.10;;;;;;5087377;27;37672;-57
2022/06/12 08:03:38;;;;;;;;;;;21.40;95.20;;;;;;5087898;27;37833;-57
2022/06/12 08:06:05;;;;;;;;;;;21.50;95.00;;;;;;5086335;27;36979;-57
2022/06/12 08:08:32;;;;;;;;;;;21.40;94.00;;;;;;5089007;27;36536;-57
2022/06/12 08:10:59;;;;;;;;;;;21.30;93.70;;;;;;5088879;27;38831;-57
2022/06/12 08:13:27;;;;;;;;;;;21.30;95.00;;;;;;5087788;27;36195;-57
2022/06/12 08:15:55;;;;;;;;;;;21.40;96.20;;;;;;5088146;27;36575;-57
2022/06/12 08:18:23;;;;;;;;;;;21.40;95.50;;;;;;5086256;27;37544;-57
2022/06/12 08:20:53;;;;;;;;;;;21.50;96.20;;;;;;5088215;27;38789;-58
2022/06/12 08:23:29;;;;;;;;;;;21.50;96.10;;;;;;5088515;27;35938;-57
2022/06/12 08:25:57;;;;;;;;;;;21.60;95.40;;;;;;5088801;27;37320;-58
2022/06/12 08:28:25;;;;;;;;;;;21.60;95.10;;;;;;5088547;27;39305;-57
2022/06/12 08:30:53;;;;;;;;;;;21.50;94.70;;;;;;5090008;28;36765;-57
2022/06/12 08:33:21;;;;;;;;;;;21.30;95.80;;;;;;5089895;28;36067;-57
2022/06/12 08:35:48;;;;;;;;;;;21.10;95.80;;;;;;5088745;28;36924;-57
2022/06/12 08:38:17;;;;;;;;;;;21.00;95.90;;;;;;5088318;27;39038;-57
2022/06/12 08:40:47;;;;;;;;;;;20.80;95.80;;;;;;5089259;27;39456;-57
2022/06/12 08:43:19;;;;;;;;;;;20.60;96.00;;;;;;5088920;28;37231;-57
2022/06/12 08:45:48;;;;;;;;;;;20.50;96.30;;;;;;5087955;27;37992;-57
2022/06/12 08:48:18;;;;;;;;;;;20.40;97.20;;;;;;5089020;27;37522;-57
2022/06/12 08:50:48;;;;;;;;;;;20.50;97.40;;;;;;5087565;28;37868;-57
2022/06/12 08:53:19;;;;;;;;;;;20.60;97.00;;;;;;5085915;28;38531;-57
2022/06/12 08:55:48;;;;;;;;;;;20.70;97.40;;;;;;5087252;27;35052;-57
2022/06/12 08:58:16;;;;;;;;;;;20.90;97.60;;;;;;5087547;28;38601;-57
2022/06/12 09:00:44;;;;;;;;;;;21.20;96.90;;;;;;5087457;27;37961;-57
2022/06/12 09:03:14;;;;;;;;;;;21.40;95.90;;;;;;5088386;27;36201;-57
2022/06/12 09:05:45;;;;;;;;;;;21.40;95.20;;;;;;5087956;27;37041;-57
2022/06/12 09:08:14;;;;;;;;;;;21.20;94.40;;;;;;5087096;27;38749;-57
2022/06/12 09:10:45;;;;;;;;;;;21.00;94.50;;;;;;5087116;27;39421;-57
2022/06/12 09:13:16;;;;;;;;;;;20.90;94.20;;;;;;5089257;27;38884;-57
2022/06/12 09:15:45;;;;;;;;;;;20.70;94.00;;;;;;5088656;27;37065;-57
2022/06/12 09:18:18;;;;;;;;;;;20.50;96.10;;;;;;5089157;27;39204;-58
2022/06/12 09:20:48;;;;;;;;;;;20.60;96.10;;;;;;5087197;27;37761;-57
2022/06/12 09:23:22;;;;;;;;;;;20.70;95.30;;;;;;5087645;27;37754;-55
2022/06/12 09:25:54;;;;;;;;;;;20.70;95.70;;;;;;5087469;27;35088;-57
2022/06/12 09:28:29;;;;;;;;;;;20.90;96.00;;;;;;5088514;27;36518;-57
2022/06/12 09:30:59;;;;;;;;;;;21.10;96.90;;;;;;5087996;27;36838;-57
2022/06/12 09:33:31;;;;;;;;;;;21.40;96.30;;;;;;5088165;27;37555;-57
2022/06/12 09:36:03;;;;;;;;;;;21.70;94.30;;;;;;5088275;27;37262;-56
2022/06/12 09:38:37;;;;;;;;;;;21.70;92.30;;;;;;5087502;27;36639;-57
2022/06/12 09:41:12;;;;;;;;;;;21.40;91.00;;;;;;5086753;27;37384;-57
2022/06/12 09:43:48;;;;;;;;;;;21.20;91.60;;;;;;5092055;27;37360;-57
2022/06/12 09:46:19;;;;;;;;;;;21.30;92.90;;;;;;5092307;27;36497;-57
2022/06/12 09:48:54;;;;;;;;;;;21.50;93.60;;;;;;5091578;27;37536;-57
2022/06/12 09:51:27;;;;;;;;;;;21.70;94.20;;;;;;5091812;27;38134;-57
2022/06/12 09:54:02;;;;;;;;;;;22.10;92.90;;;;;;5091399;27;36081;-57
2022/06/12 09:56:34;;;;;;;;;;;22.30;92.40;;;;;;5091971;28;35001;-57
2022/06/12 09:59:04;;;;;;;;;;;22.50;89.80;;;;;;5092839;28;32559;-57
2022/06/12 10:01:33;;;;;;;;;;;22.50;84.40;;;;;;5092611;28;38330;-57
2022/06/12 10:04:03;;;;;;;;;;;22.20;82.20;;;;;;5090791;27;38802;-58
2022/06/12 10:06:35;;;;;;;;;;;21.90;84.90;;;;;;5100675;27;36522;-57
2022/06/12 10:09:05;;;;;;;;;;;21.80;80.50;;;;;;5102138;28;38049;-57
2022/06/12 10:11:35;;;;;;;;;;;21.90;83.50;;;;;;5104144;27;38592;-57
2022/06/12 10:14:05;;;;;;;;;;;22.10;87.40;;;;;;5102237;28;38368;-57
2022/06/12 10:16:34;;;;;;;;;;;22.20;88.20;;;;;;5103070;27;37847;-57
2022/06/12 10:19:04;;;;;;;;;;;22.40;87.30;;;;;;5114274;27;39753;-57
2022/06/12 10:21:34;;;;;;;;;;;22.50;83.50;;;;;;5096766;27;38631;-57
2022/06/12 10:24:02;;;;;;;;;;;22.60;80.70;;;;;;5095252;27;38608;-57
2022/06/12 10:26:30;;;;;;;;;;;22.70;83.20;;;;;;5096414;28;37573;-57
2022/06/12 10:29:03;;;;;;;;;;;22.70;80.10;;;;;;5103682;28;38377;-57
2022/06/12 10:31:34;;;;;;;;;;;22.60;80.20;;;;;;5095142;28;39294;-57
2022/06/12 10:34:15;;;;;;;;;;;22.60;80.50;;;;;;5115362;27;38128;-57
2022/06/12 10:36:42;;;;;;;;;;;22.60;81.50;;;;;;5113699;27;37004;-57
2022/06/12 10:39:13;;;;;;;;;;;22.60;81.50;;;;;;5101178;28;38397;-57
2022/06/12 10:41:45;;;;;;;;;;;22.50;81.90;;;;;;5114964;27;38759;-57
2022/06/12 10:44:28;;;;;;;;;;;22.40;82.00;;;;;;5095290;28;37337;-57
2022/06/12 10:46:55;;;;;;;;;;;22.40;81.30;;;;;;5096067;28;37872;-57
2022/06/12 10:49:23;;;;;;;;;;;22.50;81.30;;;;;;5112385;28;39837;-57
2022/06/12 10:51:51;;;;;;;;;;;22.50;80.20;;;;;;5113090;27;39281;-57
2022/06/12 10:54:20;;;;;;;;;;;22.40;81.40;;;;;;5094482;28;37832;-59
2022/06/12 10:56:52;;;;;;;;;;;22.50;85.00;;;;;;5095362;28;36960;-58
2022/06/12 10:59:25;;;;;;;;;;;22.60;84.10;;;;;;5112068;27;39175;-57
2022/06/12 11:02:00;;;;;;;;;;;22.60;75.10;;;;;;5096751;28;38072;-57
2022/06/12 11:04:36;;;;;;;;;;;22.40;74.10;;;;;;5114972;27;38620;-57
2022/06/12 11:07:08;;;;;;;;;;;22.10;75.30;;;;;;5113525;27;36960;-57
2022/06/12 11:09:42;;;;;;;;;;;22.00;79.30;;;;;;5115170;27;38315;-57
2022/06/12 11:12:25;;;;;;;;;;;22.00;82.60;;;;;;5112642;27;38814;-57
2022/06/12 11:14:58;;;;;;;;;;;22.10;81.30;;;;;;5114632;27;38179;-57
2022/06/12 11:17:38;;;;;;;;;;;22.20;84.30;;;;;;5113569;27;36726;-57
2022/06/12 11:20:14;;;;;;;;;;;22.30;79.90;;;;;;5115208;27;37339;-57
2022/06/12 11:22:45;;;;;;;;;;;22.30;79.20;;;;;;5107021;27;38413;-57
2022/06/12 11:25:21;;;;;;;;;;;22.30;83.00;;;;;;5094370;28;38534;-57
2022/06/12 11:27:54;;;;;;;;;;;22.40;83.40;;;;;;5095232;27;37684;-57
2022/06/12 11:30:26;;;;;;;;;;;22.40;80.20;;;;;;5102405;28;39106;-57
2022/06/12 11:33:14;;;;;;;;;;;22.30;76.10;;;;;;5107123;28;39614;-59
2022/06/12 11:35:46;;;;;;;;;;;22.30;78.40;;;;;;5108045;27;37918;-57
2022/06/12 11:38:21;;;;;;;;;;;22.10;77.40;;;;;;5105732;27;36931;-57
2022/06/12 11:40:53;;;;;;;;;;;22.10;80.40;;;;;;5097608;28;39251;-57
2022/06/12 11:43:26;;;;;;;;;;;22.10;79.20;;;;;;5106955;28;39323;-57
2022/06/12 11:46:03;;;;;;;;;;;22.20;76.80;;;;;;5118168;27;37642;-57
2022/06/12 11:48:43;;;;;;;;;;;22.30;76.40;;;;;;5112339;27;37072;-57
2022/06/12 11:51:14;;;;;;;;;;;22.30;77.10;;;;;;5098313;28;38185;-57
2022/06/12 11:53:50;;;;;;;;;;;22.30;76.60;;;;;;5113844;27;39223;-57
2022/06/12 11:56:21;;;;;;;;;;;22.40;77.70;;;;;;5116564;27;38634;-57
2022/06/12 11:58:55;;;;;;;;;;;22.50;79.20;;;;;;5098768;28;36912;-56
2022/06/12 12:01:24;;;;;;;;;;;22.50;77.80;;;;;;5101218;28;37398;-57
2022/06/12 12:04:00;;;;;;;;;;;22.50;75.20;;;;;;5111389;27;39295;-57
2022/06/12 12:06:39;;;;;;;;;;;22.40;74.30;;;;;;5098925;28;37980;-57
2022/06/12 12:09:13;;;;;;;;;;;22.30;73.00;;;;;;5097592;28;37182;-57
2022/06/12 12:11:43;;;;;;;;;;;22.10;71.20;;;;;;5105057;28;39253;-57
2022/06/12 12:14:13;;;;;;;;;;;22.00;72.00;;;;;;5101107;28;38796;-57
2022/06/12 12:16:43;;;;;;;;;;;22.00;73.90;;;;;;5112452;27;37250;-57
2022/06/12 12:19:14;;;;;;;;;;;22.00;74.60;;;;;;5109440;27;37965;-57
2022/06/12 12:21:44;;;;;;;;;;;22.00;71.90;;;;;;5107109;27;38411;-57
2022/06/12 12:24:14;;;;;;;;;;;21.90;69.60;;;;;;5099905;28;38579;-57
2022/06/12 12:26:42;;;;;;;;;;;21.70;64.60;;;;;;5102201;27;37958;-57
2022/06/12 12:29:11;;;;;;;;;;;21.50;68.30;;;;;;5097297;28;37036;-57
2022/06/12 12:31:39;;;;;;;;;;;21.30;72.00;;;;;;5102538;28;38372;-57
2022/06/12 12:34:07;;;;;;;;;;;21.10;71.90;;;;;;5100744;27;39015;-57
2022/06/12 12:42:27;;;;;;;;;;;21.10;76.30;;;;;;5105805;27;39153;-58
2022/06/12 12:44:54;;;;;;;;;;;21.10;75.50;;;;;;5117432;27;39388;-57
2022/06/12 12:47:22;;;;;;;;;;;21.10;74.80;;;;;;5116899;27;37823;-57
2022/06/12 12:49:51;;;;;;;;;;;21.10;76.70;;;;;;5117091;27;37964;-56
2022/06/12 12:52:20;;;;;;;;;;;21.10;80.50;;;;;;5106736;27;38415;-57
2022/06/12 12:54:51;;;;;;;;;;;21.30;81.90;;;;;;5096915;28;38526;-57
2022/06/12 12:57:19;;;;;;;;;;;21.30;77.80;;;;;;5097113;28;37857;-57
2022/06/12 12:59:48;;;;;;;;;;;21.20;77.40;;;;;;5097001;28;37527;-57
2022/06/12 13:02:23;;;;;;;;;;;21.20;79.30;;;;;;5106406;28;38399;-57
2022/06/12 13:04:51;;;;;;;;;;;21.20;79.70;;;;;;5117393;27;39186;-57
2022/06/12 13:07:25;;;;;;;;;;;21.20;80.70;;;;;;5116073;27;37819;-57
2022/06/12 13:10:10;;;;;;;;;;;21.20;80.20;;;;;;5099802;28;37096;-57
2022/06/12 13:12:48;;;;;;;;;;;21.20;78.60;;;;;;5112248;27;38370;-57
2022/06/12 13:15:23;;;;;;;;;;;21.20;77.80;;;;;;5117067;27;39503;-57
2022/06/12 13:17:54;;;;;;;;;;;21.20;76.10;;;;;;5111874;27;37576;-57
2022/06/12 13:20:34;;;;;;;;;;;21.10;76.70;;;;;;5096592;28;36889;-57
2022/06/12 13:23:09;;;;;;;;;;;21.10;78.60;;;;;;5101348;28;38353;-57
2022/06/12 13:25:39;;;;;;;;;;;21.00;79.00;;;;;;5111934;27;39075;-57
2022/06/12 13:28:18;;;;;;;;;;;21.10;82.30;;;;;;5110321;27;37812;-57
2022/06/12 13:30:45;;;;;;;;;;;21.10;80.90;;;;;;5096480;28;37716;-57
2022/06/12 13:33:17;;;;;;;;;;;21.00;80.90;;;;;;5096595;28;38321;-57
2022/06/12 13:35:45;;;;;;;;;;;21.00;79.50;;;;;;5108135;28;39340;-57
2022/06/12 13:38:17;;;;;;;;;;;21.00;77.00;;;;;;5109779;27;38770;-57
2022/06/12 13:40:50;;;;;;;;;;;20.90;76.20;;;;;;5095960;28;37552;-57
2022/06/12 13:43:21;;;;;;;;;;;20.80;78.90;;;;;;5096054;28;38365;-56
2022/06/12 13:45:52;;;;;;;;;;;20.60;79.70;;;;;;5096062;28;38166;-57
2022/06/12 13:48:23;;;;;;;;;;;20.50;79.70;;;;;;5103861;28;38376;-56
2022/06/12 13:50:53;;;;;;;;;;;20.40;79.70;;;;;;5116357;27;37740;-57
2022/06/12 13:53:20;;;;;;;;;;;20.30;82.00;;;;;;5114744;27;37963;-57
2022/06/12 13:55:52;;;;;;;;;;;20.30;85.20;;;;;;5098473;27;38542;-57
2022/06/12 13:58:21;;;;;;;;;;;20.40;90.20;;;;;;5116358;27;39227;-57
2022/06/12 14:00:49;;;;;;;;;;;20.50;91.50;;;;;;5115825;27;37410;-57
2022/06/12 14:03:18;;;;;;;;;;;20.60;91.10;;;;;;5116242;27;39090;-57
2022/06/12 14:05:47;;;;;;;;;;;20.60;88.90;;;;;;5095743;27;38013;-57
2022/06/12 14:08:14;;;;;;;;;;;20.60;87.30;;;;;;5095700;28;37815;-57
2022/06/12 14:10:43;;;;;;;;;;;20.50;85.40;;;;;;5095628;28;37622;-57
2022/06/12 14:13:14;;;;;;;;;;;20.40;85.30;;;;;;5095566;28;38224;-57
2022/06/12 14:15:43;;;;;;;;;;;20.50;87.00;;;;;;5096303;28;39043;-57
2022/06/12 14:18:23;;;;;;;;;;;20.50;86.60;;;;;;5095103;28;37736;-57
2022/06/12 14:20:59;;;;;;;;;;;20.60;88.60;;;;;;5095519;28;36931;-57
2022/06/12 14:23:28;;;;;;;;;;;20.60;86.70;;;;;;5095274;28;39114;-57
2022/06/12 14:25:59;;;;;;;;;;;20.70;86.10;;;;;;5116053;27;39490;-57
2022/06/12 14:28:28;;;;;;;;;;;20.70;84.40;;;;;;5116012;27;38425;-57
2022/06/12 14:31:07;;;;;;;;;;;20.60;82.60;;;;;;5115697;27;36954;-57
2022/06/12 14:33:36;;;;;;;;;;;20.60;86.60;;;;;;5114546;28;37002;-57
2022/06/12 14:36:05;;;;;;;;;;;20.60;91.00;;;;;;5095108;28;38418;-57
2022/06/12 14:38:33;;;;;;;;;;;20.50;89.90;;;;;;5095563;28;38601;-58
2022/06/12 14:41:00;;;;;;;;;;;20.50;90.00;;;;;;5095551;28;36752;-58
2022/06/12 14:43:29;;;;;;;;;;;20.40;90.00;;;;;;5095005;28;39304;-57
2022/06/12 14:45:57;;;;;;;;;;;20.30;90.60;;;;;;5114748;27;38506;-57